岡山グライダークラブ活動状況掲示板

岡山グライダークラブ
岡山市浦安南町639-1 岡南飛行場
 使用機:シャイベ式 SF25C型 ファルケ   JA2330
      ヴァレンティン式17E型 タイフーン  JA2342
 練習日:毎日曜日  クラブルーム:電話 086-265-1810
この掲示板は岡山グライダークラブの活動状況をお知らせする掲示板です。
!!!この掲示板は投稿規制をしています。!!!
クラブ関連各種情報は 岡山グライダークラブクラブルーム      を       .
  ブリーフイング情報は  岡山グライダークラブブリーフィングルーム  をご覧下さい。 .
※写真はクリックすると拡大して見ることが出来ます。
岡南飛行場へのアクセス等は 岡南飛行場管理事務所 をご覧ください。
クラブの ホームページ ができました。

!!!お待たせしました。新型コロナ感染症の感染が下火になったことから見学者等の受入を再開します。!!!
  注)なお、見学等の際には一般的な感染対策(マスク、ソーシャルディスタンス、黙食等)を順守してください。

 
01月15日
by OGC at 2023/1/15(日) 20:11:30 No.20230115200736  削除コメント
640 x 480 x 78,946バイト
No.1

01月15日
本日の参加者
  会員      13名
  その他     00名


@本日の様子






METAR
RJBK 150000Z VRB01KT 30KM FEW025CU SCT035CU BKN060SC 10/08 Q1013 A2992
RJOB 150000Z 35003KT 300V050 9999 FEW015 BKN040 09/06 Q1012
RJOT 150000Z 32003KT 2000 -SHRA BR FEW000 SCT002 BKN006 09/09 Q1013
RJOA 150000Z 01006KT 9999 FEW015 BKN030 BKN050 09/06 Q1012
TAF
RJOB 142305Z 1500/1606 04007KT 8000 -SHRA FEW008 SCT015 BKN025
RJOT 142305Z 1500/1606 36004KT 7000 FEW008 SCT012 BKN025
     TEMPO 1500/1502 3000 BR FEW001 BKN005 BKN012
     BECMG 1518/1521 25006KT
     BECMG 1603/1606 01006KT
RJOA 142305Z 1500/1606 12004KT 9999 FEW015 BKN035
     BECMG 1518/1521 29006KT
     BECMG 1603/1606 01007KT


本日の天候は曇りのち一時雨で日差しも少なく、凸凹も少なく安定した
飛行ができ、訓練しやすい天候でした。

次週01月22日は年次総会を開催しますので、万障お繰り合わせのうえ、
何卒ご参加くださいますようお願い申し上げます。


解散    17:30

1番機  10:40離陸 撤収機  16:50着陸 

SF25C JA2330 ファルケ     09Flt.3h15min  
17E   JA2342 タイフーン    00Flt.0h00min
合計                    09Flt.3h15min

    << 戻る || ホームページ || 最新の掲示板へ